createdAt,value
2019-05-09T00:01:14.175Z,99.90
2019-05-09T00:03:44.278Z,99.90
2019-05-09T00:06:13.719Z,99.90
2019-05-09T00:08:44.228Z,99.90
2019-05-09T00:11:14.757Z,99.90
2019-05-09T00:13:43.556Z,99.90
2019-05-09T00:16:14.231Z,99.90
2019-05-09T00:18:44.585Z,99.90
2019-05-09T00:21:14.476Z,99.90
2019-05-09T00:23:43.769Z,99.90
2019-05-09T00:26:13.426Z,99.90
2019-05-09T00:28:44.168Z,99.90
2019-05-09T00:31:14.334Z,99.90
2019-05-09T00:33:47.796Z,99.90
2019-05-09T00:36:14.209Z,99.90
2019-05-09T00:38:47.063Z,99.90
2019-05-09T00:41:15.315Z,99.90
2019-05-09T00:43:45.217Z,99.90
2019-05-09T00:46:17.731Z,99.90
2019-05-09T00:48:53.483Z,99.90
2019-05-09T00:51:23.264Z,99.90
2019-05-09T00:53:53.634Z,99.90
2019-05-09T00:56:23.727Z,99.90
2019-05-09T00:58:53.484Z,99.90
2019-05-09T01:01:23.742Z,99.90
2019-05-09T01:03:53.555Z,99.90
2019-05-09T01:06:23.800Z,99.90
2019-05-09T01:08:53.650Z,99.90
2019-05-09T01:11:23.985Z,99.90
2019-05-09T01:13:53.635Z,99.90
2019-05-09T01:16:23.902Z,99.90
2019-05-09T01:18:51.528Z,99.90
2019-05-09T01:21:19.772Z,99.90
2019-05-09T01:23:48.025Z,99.90
2019-05-09T01:26:16.272Z,99.90
2019-05-09T01:28:44.521Z,99.90
2019-05-09T01:31:13.366Z,99.90
2019-05-09T01:33:43.949Z,99.90
2019-05-09T01:36:14.429Z,99.90
2019-05-09T01:39:03.271Z,99.90
2019-05-09T01:41:34.011Z,99.90
2019-05-09T01:44:03.962Z,99.90
2019-05-09T01:46:33.545Z,99.90
2019-05-09T01:49:03.160Z,99.90
2019-05-09T01:51:33.619Z,99.90
2019-05-09T01:54:03.659Z,99.90
2019-05-09T01:56:33.426Z,99.90
2019-05-09T01:59:03.056Z,99.90
2019-05-09T02:01:31.605Z,99.90
2019-05-09T02:03:59.852Z,99.90
2019-05-09T02:06:28.165Z,99.90
2019-05-09T02:08:56.440Z,99.90
2019-05-09T02:11:38.418Z,99.90
2019-05-09T02:13:54.712Z,99.90
2019-05-09T02:19:25.488Z,99.90
2019-05-09T02:21:53.730Z,99.90
2019-05-09T02:24:23.415Z,99.90
2019-05-09T02:26:53.349Z,99.90
2019-05-09T02:29:23.153Z,99.90
2019-05-09T02:31:54.468Z,99.90
2019-05-09T02:34:24.567Z,99.90
2019-05-09T02:36:51.793Z,99.90
2019-05-09T02:39:20.036Z,99.90
2019-05-09T02:42:00.831Z,99.90
2019-05-09T02:44:19.625Z,99.90
2019-05-09T02:46:52.662Z,99.90
2019-05-09T02:49:20.953Z,99.90
2019-05-09T02:51:49.182Z,99.90
2019-05-09T02:54:19.096Z,99.90
2019-05-09T02:56:49.316Z,99.90
2019-05-09T02:59:24.445Z,99.90
2019-05-09T03:02:00.028Z,99.90
2019-05-09T03:04:28.592Z,99.90
2019-05-09T03:06:59.718Z,99.90
2019-05-09T03:09:28.701Z,99.90
2019-05-09T03:11:59.021Z,99.90
2019-05-09T03:14:28.624Z,99.90
2019-05-09T03:16:58.695Z,99.90
2019-05-09T03:19:29.725Z,99.90
2019-05-09T03:21:58.857Z,99.90
2019-05-09T03:24:28.797Z,99.90
2019-05-09T03:27:01.656Z,99.90
2019-05-09T03:32:11.869Z,99.90
2019-05-09T03:34:40.120Z,99.90
2019-05-09T03:37:08.619Z,99.90
2019-05-09T03:39:37.728Z,99.90
2019-05-09T03:42:07.829Z,99.90
2019-05-09T03:44:38.423Z,99.90
2019-05-09T03:47:08.452Z,99.90
2019-05-09T03:49:37.621Z,99.90
2019-05-09T03:52:07.590Z,99.90
2019-05-09T03:54:37.547Z,99.90
2019-05-09T03:57:07.803Z,99.90
2019-05-09T03:59:38.051Z,99.90
2019-05-09T04:02:09.998Z,99.90
2019-05-09T04:04:38.242Z,99.90
2019-05-09T04:07:08.254Z,99.90
2019-05-09T04:09:37.473Z,99.90
2019-05-09T04:12:07.529Z,99.90
2019-05-09T04:14:37.633Z,99.90
2019-05-09T04:17:07.855Z,95.40
2019-05-09T04:19:38.438Z,91.70
2019-05-09T04:22:07.978Z,91.00
2019-05-09T04:24:38.210Z,94.50
2019-05-09T04:27:10.616Z,96.10
2019-05-09T04:29:38.872Z,97.00
2019-05-09T04:32:07.940Z,89.50
2019-05-09T04:34:38.022Z,86.00
2019-05-09T04:37:08.011Z,87.90
2019-05-09T04:39:38.663Z,89.00
2019-05-09T04:42:08.391Z,91.20
2019-05-09T04:44:38.225Z,93.70
2019-05-09T04:47:08.572Z,95.70
2019-05-09T04:49:40.820Z,95.70
2019-05-09T04:52:07.627Z,95.90
2019-05-09T04:54:38.259Z,96.10
2019-05-09T04:57:07.817Z,96.10
2019-05-09T04:59:37.406Z,92.10
2019-05-09T05:02:27.636Z,83.50
2019-05-09T05:04:55.719Z,82.40
2019-05-09T05:07:23.977Z,82.00
2019-05-09T05:09:52.217Z,82.80
2019-05-09T05:12:20.477Z,84.20
2019-05-09T05:14:48.724Z,83.00
2019-05-09T05:17:17.930Z,83.60
2019-05-09T05:19:47.696Z,83.90
2019-05-09T05:22:18.340Z,84.00
2019-05-09T05:24:48.914Z,82.10
2019-05-09T05:27:18.799Z,77.20
2019-05-09T05:29:47.688Z,73.50
2019-05-09T05:32:17.870Z,75.50
2019-05-09T05:35:00.081Z,74.30
2019-05-09T05:37:28.344Z,68.30
2019-05-09T05:39:58.293Z,61.40
2019-05-09T05:42:28.207Z,55.30
2019-05-09T05:44:58.257Z,56.00
2019-05-09T05:47:43.683Z,56.50
2019-05-09T05:50:11.934Z,55.30
2019-05-09T05:52:40.193Z,56.60
2019-05-09T05:55:08.463Z,55.90
2019-05-09T05:57:38.531Z,51.80
2019-05-09T06:00:07.936Z,50.80
2019-05-09T06:02:38.476Z,50.80
2019-05-09T06:05:08.513Z,51.30
2019-05-09T06:07:37.825Z,51.40
2019-05-09T06:10:08.275Z,49.00
2019-05-09T06:12:38.065Z,46.90
2019-05-09T06:15:28.880Z,47.00
2019-05-09T06:17:58.019Z,44.90
2019-05-09T06:20:28.085Z,45.60
2019-05-09T06:22:58.185Z,46.00
2019-05-09T06:25:30.055Z,47.40
2019-05-09T06:27:58.473Z,49.20
2019-05-09T06:30:28.427Z,47.20
2019-05-09T06:32:58.063Z,48.90
2019-05-09T06:35:28.201Z,51.10
2019-05-09T06:37:58.832Z,49.70
2019-05-09T06:40:28.674Z,51.20
2019-05-09T06:42:59.852Z,50.40
2019-05-09T06:45:28.492Z,47.90
2019-05-09T06:47:58.322Z,47.60
2019-05-09T06:50:27.274Z,46.90
2019-05-09T06:52:57.326Z,50.10
2019-05-09T06:55:27.690Z,53.70
2019-05-09T06:57:58.111Z,57.20
2019-05-09T07:00:37.990Z,60.70
2019-05-09T07:03:18.470Z,61.30
2019-05-09T07:05:54.323Z,61.80
2019-05-09T07:08:27.363Z,63.40
2019-05-09T07:10:58.452Z,63.30
2019-05-09T07:13:27.604Z,63.10
2019-05-09T07:15:58.361Z,65.20
2019-05-09T07:18:27.662Z,66.20
2019-05-09T07:20:57.648Z,67.30
2019-05-09T07:23:28.148Z,66.10
2019-05-09T07:26:14.052Z,66.70
2019-05-09T07:28:43.095Z,63.60
2019-05-09T07:31:21.623Z,62.50
2019-05-09T07:33:58.767Z,62.00
2019-05-09T07:36:27.866Z,61.00
2019-05-09T07:38:58.263Z,61.50
2019-05-09T07:41:28.236Z,61.90
2019-05-09T07:43:58.328Z,60.70
2019-05-09T07:46:28.858Z,61.10
2019-05-09T07:48:58.020Z,61.20
2019-05-09T07:51:27.461Z,63.60
2019-05-09T07:53:58.698Z,65.10
2019-05-09T07:56:28.352Z,64.70
2019-05-09T07:58:58.272Z,63.50
2019-05-09T08:01:28.104Z,63.30
2019-05-09T08:03:58.344Z,63.00
2019-05-09T08:06:28.461Z,63.10
2019-05-09T08:08:58.160Z,64.00
2019-05-09T08:11:28.279Z,64.50
2019-05-09T08:13:57.552Z,65.40
2019-05-09T08:16:27.853Z,67.10
2019-05-09T08:18:57.859Z,68.30
2019-05-09T08:21:27.710Z,69.50
2019-05-09T08:23:57.862Z,68.20
2019-05-09T08:26:29.794Z,67.50
2019-05-09T08:28:58.343Z,66.20
2019-05-09T08:31:28.044Z,65.30
2019-05-09T08:33:59.040Z,65.00
2019-05-09T08:36:28.236Z,65.90
2019-05-09T08:38:58.704Z,65.60
2019-05-09T08:41:29.011Z,64.70
2019-05-09T08:43:57.553Z,63.80
2019-05-09T08:46:28.447Z,62.40
2019-05-09T08:48:57.621Z,62.80
2019-05-09T08:51:37.418Z,59.80
2019-05-09T08:53:57.930Z,58.50
2019-05-09T08:56:28.343Z,59.90
2019-05-09T08:59:01.584Z,61.20
2019-05-09T09:01:34.587Z,62.80
2019-05-09T09:03:57.566Z,61.30
2019-05-09T09:06:27.842Z,61.10
2019-05-09T09:08:57.570Z,60.80
2019-05-09T09:11:28.005Z,59.10
2019-05-09T09:13:57.695Z,58.80
2019-05-09T09:16:28.166Z,58.10
2019-05-09T09:18:58.196Z,58.90
2019-05-09T09:21:28.400Z,58.00
2019-05-09T09:23:58.045Z,57.70
2019-05-09T09:26:27.763Z,59.50
2019-05-09T09:28:57.774Z,60.50
2019-05-09T09:31:25.784Z,60.20
2019-05-09T09:33:54.039Z,61.00
2019-05-09T09:36:22.300Z,60.80
2019-05-09T09:38:50.545Z,59.00
2019-05-09T09:41:18.801Z,60.20
2019-05-09T09:43:47.736Z,57.20
2019-05-09T09:46:18.203Z,57.00
2019-05-09T09:48:48.047Z,57.70
2019-05-09T09:51:18.693Z,58.30
2019-05-09T09:53:48.690Z,60.00
2019-05-09T09:56:17.789Z,61.70
2019-05-09T09:58:48.337Z,62.90
2019-05-09T10:01:30.536Z,63.30
2019-05-09T10:04:18.635Z,60.40
2019-05-09T10:06:38.791Z,57.80
2019-05-09T10:09:09.348Z,58.00
2019-05-09T10:11:37.785Z,57.30
2019-05-09T10:14:07.863Z,56.20
2019-05-09T10:19:45.046Z,54.40
2019-05-09T10:22:23.928Z,55.90
2019-05-09T10:24:50.680Z,55.20
2019-05-09T10:27:19.013Z,51.90
2019-05-09T10:29:48.008Z,53.00
2019-05-09T10:32:18.249Z,50.20
2019-05-09T10:34:48.797Z,49.60
2019-05-09T10:37:18.565Z,50.10
2019-05-09T10:39:49.059Z,51.70
2019-05-09T10:42:30.791Z,50.00
2019-05-09T10:45:18.057Z,51.80
2019-05-09T10:47:48.257Z,52.00
2019-05-09T10:50:18.342Z,52.30
2019-05-09T10:52:48.131Z,51.60
2019-05-09T10:55:17.878Z,51.40
2019-05-09T10:57:52.381Z,51.70
2019-05-09T11:00:18.435Z,53.30
2019-05-09T11:02:48.351Z,51.70
2019-05-09T11:05:18.447Z,52.10
2019-05-09T11:07:46.565Z,51.70
2019-05-09T11:10:25.808Z,53.70
2019-05-09T11:12:44.800Z,52.70
2019-05-09T11:15:13.120Z,53.90
2019-05-09T11:17:41.364Z,54.90
2019-05-09T11:20:09.617Z,52.50
2019-05-09T11:22:38.656Z,51.90
2019-05-09T11:25:08.768Z,52.00
2019-05-09T11:27:38.926Z,52.10
2019-05-09T11:30:08.444Z,50.90
2019-05-09T11:32:38.595Z,52.70
2019-05-09T11:35:08.967Z,51.30
2019-05-09T11:37:38.366Z,52.70
2019-05-09T11:40:07.576Z,52.40
2019-05-09T11:42:37.932Z,50.00
2019-05-09T11:45:07.695Z,48.70
2019-05-09T11:47:42.893Z,51.70
2019-05-09T11:50:08.857Z,53.00
2019-05-09T11:52:38.334Z,56.30
2019-05-09T11:55:07.999Z,55.50
2019-05-09T11:57:38.463Z,57.40
2019-05-09T12:00:08.223Z,57.40
2019-05-09T12:02:38.554Z,57.70
2019-05-09T12:05:28.837Z,55.80
2019-05-09T12:07:58.197Z,56.90
2019-05-09T12:10:28.612Z,55.50
2019-05-09T12:12:57.626Z,55.60
2019-05-09T12:15:28.816Z,55.50
2019-05-09T12:18:01.543Z,55.60
2019-05-09T12:20:27.690Z,56.20
2019-05-09T12:22:58.455Z,54.60
2019-05-09T12:25:28.248Z,55.40
2019-05-09T12:27:58.475Z,58.10
2019-05-09T12:30:28.242Z,57.50
2019-05-09T12:32:58.617Z,58.20
2019-05-09T12:35:26.157Z,58.40
2019-05-09T12:37:54.422Z,58.90
2019-05-09T12:40:22.673Z,57.60
2019-05-09T12:42:50.930Z,56.90
2019-05-09T12:45:38.901Z,55.50
2019-05-09T12:48:14.112Z,56.50
2019-05-09T12:50:38.718Z,56.30
2019-05-09T12:53:07.149Z,56.40
2019-05-09T12:55:35.407Z,57.90
2019-05-09T12:58:03.990Z,58.90
2019-05-09T13:00:32.598Z,59.70
2019-05-09T13:03:00.847Z,61.10
2019-05-09T13:05:29.097Z,60.50
2019-05-09T13:07:57.837Z,60.70
2019-05-09T13:10:28.241Z,59.80
2019-05-09T13:12:56.157Z,59.10
2019-05-09T13:15:30.591Z,59.60
2019-05-09T13:17:57.962Z,59.60
2019-05-09T13:20:28.445Z,59.40
2019-05-09T13:22:58.650Z,59.60
2019-05-09T13:25:28.796Z,60.00
2019-05-09T13:27:58.071Z,60.10
2019-05-09T13:30:28.515Z,60.60
2019-05-09T13:32:57.700Z,59.60
2019-05-09T13:35:27.776Z,60.20
2019-05-09T13:37:59.405Z,59.20
2019-05-09T13:40:29.091Z,56.90
2019-05-09T13:42:58.352Z,56.40
2019-05-09T13:45:28.450Z,54.40
2019-05-09T13:47:57.775Z,52.00
2019-05-09T13:50:28.121Z,52.00
2019-05-09T13:52:55.788Z,51.60
2019-05-09T13:55:24.074Z,52.40
2019-05-09T13:57:52.329Z,53.50
2019-05-09T14:00:21.181Z,55.80
2019-05-09T14:02:49.477Z,56.70
2019-05-09T14:05:19.050Z,58.10
2019-05-09T14:07:49.187Z,58.00
2019-05-09T14:10:17.863Z,61.00
2019-05-09T14:13:03.720Z,60.70
2019-05-09T14:15:18.412Z,59.60
2019-05-09T14:17:53.180Z,59.80
2019-05-09T14:20:18.033Z,58.10
2019-05-09T14:22:48.753Z,58.10
2019-05-09T14:25:19.217Z,57.40
2019-05-09T14:27:51.471Z,55.00
2019-05-09T14:30:16.444Z,53.20
2019-05-09T14:32:44.697Z,51.80
2019-05-09T14:35:13.337Z,54.20
2019-05-09T14:37:44.473Z,51.70
2019-05-09T14:40:12.785Z,49.60
2019-05-09T14:42:41.052Z,49.80
2019-05-09T14:45:09.297Z,51.70
2019-05-09T14:47:41.836Z,52.70
2019-05-09T14:50:09.986Z,55.10
2019-05-09T14:52:38.362Z,54.60
2019-05-09T14:55:08.198Z,56.40
2019-05-09T14:57:38.358Z,57.00
2019-05-09T15:00:07.890Z,58.10
2019-05-09T15:02:38.635Z,59.70
2019-05-09T15:05:09.312Z,59.10
2019-05-09T15:07:38.924Z,61.10
2019-05-09T15:10:08.678Z,61.00
2019-05-09T15:12:39.047Z,61.10
2019-05-09T15:15:09.734Z,61.60
2019-05-09T15:17:37.981Z,62.10
2019-05-09T15:20:08.736Z,62.50
2019-05-09T15:22:38.662Z,63.60
2019-05-09T15:25:08.785Z,63.90
2019-05-09T15:27:38.445Z,63.60
2019-05-09T15:30:06.561Z,63.40
2019-05-09T15:32:34.808Z,63.40
2019-05-09T15:35:03.119Z,63.40
2019-05-09T15:37:31.372Z,63.20
2019-05-09T15:39:59.645Z,62.70
2019-05-09T15:42:30.450Z,62.20
2019-05-09T15:44:58.938Z,62.90
2019-05-09T15:47:31.918Z,62.70
2019-05-09T15:50:15.473Z,63.10
2019-05-09T15:52:30.193Z,63.10
2019-05-09T15:54:58.462Z,61.40
2019-05-09T15:57:27.574Z,63.60
2019-05-09T15:59:58.631Z,65.60
2019-05-09T16:02:28.230Z,64.90
2019-05-09T16:04:58.244Z,65.60
2019-05-09T16:07:25.884Z,65.00
2019-05-09T16:10:02.606Z,63.40
2019-05-09T16:12:30.861Z,63.90
2019-05-09T16:14:59.097Z,63.90
2019-05-09T16:17:28.491Z,64.40
2019-05-09T16:19:57.762Z,62.10
2019-05-09T16:22:28.372Z,62.00
2019-05-09T16:24:56.121Z,59.60
2019-05-09T16:27:24.390Z,60.90
2019-05-09T16:29:52.638Z,60.60
2019-05-09T16:32:20.909Z,60.20
2019-05-09T16:34:49.147Z,60.80
2019-05-09T16:37:17.422Z,61.40
2019-05-09T16:39:47.608Z,61.30
2019-05-09T16:42:15.628Z,61.80
2019-05-09T16:44:43.885Z,62.30
2019-05-09T16:47:12.149Z,63.90
2019-05-09T16:49:40.398Z,64.30
2019-05-09T16:52:08.636Z,63.70
2019-05-09T16:54:38.827Z,65.60
2019-05-09T16:57:08.234Z,65.50
2019-05-09T16:59:38.820Z,65.70
2019-05-09T17:02:18.816Z,64.70
2019-05-09T17:04:38.693Z,64.70
2019-05-09T17:07:08.387Z,64.40
2019-05-09T17:09:38.284Z,65.00
2019-05-09T17:12:08.336Z,66.40
2019-05-09T17:14:36.501Z,67.50
2019-05-09T17:17:04.765Z,68.20
2019-05-09T17:19:33.025Z,69.30
2019-05-09T17:22:02.924Z,69.30
2019-05-09T17:24:31.232Z,70.70
2019-05-09T17:26:59.480Z,70.00
2019-05-09T17:29:28.203Z,70.90
2019-05-09T17:31:58.424Z,71.80
2019-05-09T17:34:28.655Z,71.30
2019-05-09T17:36:56.608Z,72.20
2019-05-09T17:39:24.857Z,72.30
2019-05-09T17:41:53.104Z,72.80
2019-05-09T17:44:21.388Z,73.10
2019-05-09T17:46:49.624Z,73.00
2019-05-09T17:49:17.876Z,73.90
2019-05-09T17:51:48.147Z,75.00
2019-05-09T17:54:18.118Z,74.80
2019-05-09T17:56:48.248Z,75.50
2019-05-09T17:59:18.159Z,75.50
2019-05-09T18:01:48.269Z,75.50
2019-05-09T18:04:17.934Z,75.80
2019-05-09T18:06:48.699Z,75.70
2019-05-09T18:09:15.929Z,75.50
2019-05-09T18:11:44.172Z,75.00
2019-05-09T18:14:12.432Z,75.80
2019-05-09T18:16:40.681Z,76.30
2019-05-09T18:19:08.944Z,76.90
2019-05-09T18:21:50.287Z,75.80
2019-05-09T18:24:08.873Z,76.60
2019-05-09T18:26:38.190Z,77.50
2019-05-09T18:29:06.914Z,77.40
2019-05-09T18:31:49.096Z,77.10
2019-05-09T18:34:18.549Z,78.20
2019-05-09T18:36:48.409Z,78.40
2019-05-09T18:39:18.579Z,79.30
2019-05-09T18:41:48.386Z,79.00
2019-05-09T18:44:18.268Z,79.70
2019-05-09T18:46:48.140Z,79.80
2019-05-09T18:49:16.674Z,79.80
2019-05-09T18:51:44.949Z,79.80
2019-05-09T18:54:13.251Z,79.80
2019-05-09T18:56:41.496Z,79.70
2019-05-09T18:59:09.748Z,79.80
2019-05-09T19:01:38.020Z,80.90
2019-05-09T19:04:06.321Z,80.60
2019-05-09T19:06:34.580Z,80.60
2019-05-09T19:09:04.588Z,81.70
2019-05-09T19:11:32.867Z,82.10
2019-05-09T19:14:01.847Z,83.10
2019-05-09T19:16:31.733Z,83.30
2019-05-09T19:19:01.622Z,83.50
2019-05-09T19:21:31.513Z,84.20
2019-05-09T19:23:59.758Z,84.90
2019-05-09T19:26:36.867Z,84.50
2019-05-09T19:29:08.355Z,85.10
2019-05-09T19:31:36.696Z,85.20
2019-05-09T19:34:04.980Z,86.20
2019-05-09T19:36:33.237Z,86.30
2019-05-09T19:39:01.487Z,87.10
2019-05-09T19:41:29.741Z,87.50
2019-05-09T19:43:57.992Z,88.40
2019-05-09T19:46:26.256Z,89.30
2019-05-09T19:48:54.492Z,89.50
2019-05-09T19:51:22.743Z,89.70
2019-05-09T19:53:50.981Z,89.30
2019-05-09T19:56:19.243Z,89.20
2019-05-09T19:58:47.468Z,89.70
2019-05-09T20:01:15.793Z,89.90
2019-05-09T20:03:44.032Z,88.80
2019-05-09T20:06:12.292Z,89.00
2019-05-09T20:08:40.609Z,87.90
2019-05-09T20:11:26.944Z,87.60
2019-05-09T20:13:59.841Z,88.10
2019-05-09T20:16:41.892Z,88.10
2019-05-09T20:19:10.249Z,88.00
2019-05-09T20:21:38.556Z,88.60
2019-05-09T20:24:09.205Z,88.80
2019-05-09T20:26:36.864Z,89.50
2019-05-09T20:29:05.101Z,89.90
2019-05-09T20:31:33.445Z,91.00
2019-05-09T20:34:01.778Z,90.90
2019-05-09T20:36:30.068Z,91.10
2019-05-09T20:38:58.512Z,91.50
2019-05-09T20:41:26.939Z,91.80
2019-05-09T20:43:55.452Z,92.30
2019-05-09T20:46:23.874Z,92.50
2019-05-09T20:48:52.319Z,92.90
2019-05-09T20:51:20.744Z,94.00
2019-05-09T20:53:49.189Z,94.10
2019-05-09T20:56:17.613Z,94.30
2019-05-09T20:58:46.050Z,95.20
2019-05-09T21:01:16.108Z,95.50
2019-05-09T21:03:59.077Z,95.90
2019-05-09T21:06:14.693Z,96.50
2019-05-09T21:08:43.127Z,97.00
2019-05-09T21:11:11.557Z,98.30
2019-05-09T21:13:48.404Z,98.30
2019-05-09T21:16:10.170Z,99.60
2019-05-09T21:18:38.758Z,98.40
2019-05-09T21:21:07.165Z,98.10
2019-05-09T21:23:35.610Z,97.80
2019-05-09T21:26:04.038Z,97.60
2019-05-09T21:28:32.497Z,97.90
2019-05-09T21:31:00.924Z,97.40
2019-05-09T21:33:30.592Z,96.90
2019-05-09T21:35:58.833Z,96.60
2019-05-09T21:38:27.085Z,96.60
2019-05-09T21:40:55.325Z,96.60
2019-05-09T21:43:23.572Z,96.30
2019-05-09T21:45:51.814Z,96.70
2019-05-09T21:48:20.069Z,96.80
2019-05-09T21:50:48.312Z,96.70
2019-05-09T21:53:16.564Z,96.80
2019-05-09T21:55:44.804Z,97.30
2019-05-09T21:58:13.064Z,97.50
2019-05-09T22:00:41.384Z,97.60
2019-05-09T22:03:09.646Z,97.50
2019-05-09T22:05:37.962Z,96.90
2019-05-09T22:08:06.204Z,96.80
2019-05-09T22:10:34.524Z,96.80
2019-05-09T22:13:02.785Z,96.80
2019-05-09T22:15:31.100Z,96.70
2019-05-09T22:17:59.357Z,97.10
2019-05-09T22:20:27.601Z,96.90
2019-05-09T22:22:55.850Z,97.00
2019-05-09T22:25:24.109Z,97.10
2019-05-09T22:27:52.715Z,97.20
2019-05-09T22:30:20.960Z,97.10
2019-05-09T22:32:49.215Z,97.10
2019-05-09T22:35:17.468Z,96.90
2019-05-09T22:37:45.708Z,96.90
2019-05-09T22:40:13.966Z,96.90
2019-05-09T22:42:42.276Z,96.90
2019-05-09T22:45:10.532Z,97.00
2019-05-09T22:47:38.829Z,97.10
2019-05-09T22:50:07.193Z,97.50
2019-05-09T22:52:35.433Z,97.20
2019-05-09T22:55:04.224Z,97.20
2019-05-09T22:57:32.469Z,97.90
2019-05-09T23:00:00.745Z,97.60
2019-05-09T23:02:29.044Z,98.10
2019-05-09T23:04:57.307Z,98.50
2019-05-09T23:07:25.542Z,98.20
2019-05-09T23:09:53.804Z,98.30
2019-05-09T23:12:22.053Z,98.50
2019-05-09T23:14:50.299Z,98.80
2019-05-09T23:17:18.533Z,98.80
2019-05-09T23:19:46.817Z,99.20
2019-05-09T23:22:15.070Z,99.90
2019-05-09T23:24:44.840Z,99.90
2019-05-09T23:27:14.971Z,99.90
2019-05-09T23:29:43.224Z,99.90
2019-05-09T23:32:25.311Z,99.90
2019-05-09T23:34:53.631Z,99.90
2019-05-09T23:37:21.878Z,99.90
2019-05-09T23:39:51.775Z,99.90
2019-05-09T23:42:20.020Z,99.90
2019-05-09T23:44:48.270Z,99.90
2019-05-09T23:47:16.519Z,99.90
2019-05-09T23:49:44.774Z,99.90
2019-05-09T23:52:13.021Z,99.90
2019-05-09T23:54:59.057Z,99.90
2019-05-09T23:57:45.453Z,99.90
